createdAt,value
2018-12-27T00:00:18.987Z,2.30
2018-12-27T00:02:54.865Z,2.30
2018-12-27T00:05:19.418Z,2.30
2018-12-27T00:07:48.070Z,2.30
2018-12-27T00:10:16.614Z,2.20
2018-12-27T00:12:45.479Z,2.30
2018-12-27T00:15:14.328Z,2.20
2018-12-27T00:17:42.842Z,2.30
2018-12-27T00:20:11.552Z,2.20
2018-12-27T00:22:40.431Z,2.20
2018-12-27T00:25:08.985Z,2.20
2018-12-27T00:27:37.562Z,2.20
2018-12-27T00:30:06.282Z,2.10
2018-12-27T00:32:35.129Z,2.20
2018-12-27T00:35:03.817Z,2.20
2018-12-27T00:37:32.061Z,2.20
2018-12-27T00:40:00.550Z,2.20
2018-12-27T00:42:29.263Z,2.20
2018-12-27T00:44:57.740Z,2.10
2018-12-27T00:47:26.421Z,2.10
2018-12-27T00:49:54.918Z,2.10
2018-12-27T00:52:23.805Z,2.10
2018-12-27T00:54:52.046Z,2.10
2018-12-27T00:57:20.742Z,2.00
2018-12-27T00:59:49.428Z,2.00
2018-12-27T01:02:18.111Z,2.00
2018-12-27T01:04:46.828Z,2.00
2018-12-27T01:07:15.488Z,2.00
2018-12-27T01:09:44.176Z,2.00
2018-12-27T01:12:12.890Z,2.00
2018-12-27T01:14:41.153Z,2.00
2018-12-27T01:17:09.746Z,2.00
2018-12-27T01:19:38.529Z,2.00
2018-12-27T01:22:07.200Z,2.00
2018-12-27T01:24:35.966Z,2.00
2018-12-27T01:27:04.538Z,2.10
2018-12-27T01:29:33.025Z,2.10
2018-12-27T01:32:01.730Z,2.10
2018-12-27T01:34:30.431Z,2.10
2018-12-27T01:36:59.089Z,2.10
2018-12-27T01:39:27.352Z,2.00
2018-12-27T01:41:56.081Z,2.00
2018-12-27T01:44:24.744Z,2.00
2018-12-27T01:46:53.422Z,2.00
2018-12-27T01:49:22.125Z,2.00
2018-12-27T01:51:50.702Z,2.00
2018-12-27T01:54:18.978Z,2.00
2018-12-27T01:56:47.396Z,2.10
2018-12-27T01:59:15.730Z,2.10
2018-12-27T02:01:44.309Z,2.10
2018-12-27T02:04:13.021Z,2.10
2018-12-27T02:06:41.390Z,2.10
2018-12-27T02:09:10.151Z,2.20
2018-12-27T02:11:38.881Z,2.20
2018-12-27T02:14:07.530Z,2.20
2018-12-27T02:16:36.021Z,2.20
2018-12-27T02:19:04.325Z,2.20
2018-12-27T02:21:32.679Z,2.20
2018-12-27T02:24:01.259Z,2.30
2018-12-27T02:26:29.955Z,2.30
2018-12-27T02:28:58.210Z,2.30
2018-12-27T02:31:26.897Z,2.30
2018-12-27T02:33:55.599Z,2.30
2018-12-27T02:36:23.859Z,2.30
2018-12-27T02:38:52.325Z,2.30
2018-12-27T02:41:20.850Z,2.30
2018-12-27T02:43:49.510Z,2.40
2018-12-27T02:46:17.780Z,2.40
2018-12-27T02:48:46.499Z,2.40
2018-12-27T02:51:15.153Z,2.40
2018-12-27T02:53:43.637Z,2.30
2018-12-27T02:56:13.365Z,2.30
2018-12-27T02:58:42.044Z,2.30
2018-12-27T03:01:10.328Z,2.40
2018-12-27T03:03:43.873Z,2.40
2018-12-27T03:06:09.229Z,2.40
2018-12-27T03:08:37.502Z,2.30
2018-12-27T03:11:06.089Z,2.30
2018-12-27T03:13:34.762Z,2.30
2018-12-27T03:16:03.439Z,2.20
2018-12-27T03:18:32.146Z,2.20
2018-12-27T03:21:00.806Z,2.20
2018-12-27T03:23:29.492Z,2.20
2018-12-27T03:25:58.217Z,2.20
2018-12-27T03:28:26.573Z,2.30
2018-12-27T03:30:55.160Z,2.30
2018-12-27T03:33:23.842Z,2.30
2018-12-27T03:35:52.093Z,2.30
2018-12-27T03:38:20.571Z,2.30
2018-12-27T03:40:49.282Z,2.30
2018-12-27T03:43:17.958Z,2.30
2018-12-27T03:45:46.449Z,2.20
2018-12-27T03:48:15.094Z,2.20
2018-12-27T03:50:43.500Z,2.20
2018-12-27T03:53:11.797Z,2.20
2018-12-27T03:55:40.118Z,2.30
2018-12-27T03:58:08.838Z,2.30
2018-12-27T04:00:37.521Z,2.30
2018-12-27T04:03:06.238Z,2.30
2018-12-27T04:05:34.692Z,2.30
2018-12-27T04:08:02.962Z,2.40
2018-12-27T04:10:31.677Z,2.40
2018-12-27T04:13:00.352Z,2.40
2018-12-27T04:15:29.133Z,2.40
2018-12-27T04:17:57.732Z,2.40
2018-12-27T04:20:26.387Z,2.40
2018-12-27T04:22:55.085Z,2.40
2018-12-27T04:25:24.095Z,2.40
2018-12-27T04:27:52.446Z,2.40
2018-12-27T04:30:21.139Z,2.40
2018-12-27T04:32:50.144Z,2.40
2018-12-27T04:35:18.709Z,2.40
2018-12-27T04:37:47.398Z,2.40
2018-12-27T04:40:16.107Z,2.40
2018-12-27T04:42:45.079Z,2.40
2018-12-27T04:45:13.655Z,2.40
2018-12-27T04:47:42.366Z,2.40
2018-12-27T04:50:11.075Z,2.40
2018-12-27T04:52:39.301Z,2.40
2018-12-27T04:55:08.014Z,2.40
2018-12-27T04:57:36.468Z,2.40
2018-12-27T05:00:05.776Z,2.40
2018-12-27T05:02:34.282Z,2.40
2018-12-27T05:05:02.937Z,2.40
2018-12-27T05:07:31.628Z,2.40
2018-12-27T05:10:00.343Z,2.40
2018-12-27T05:12:28.702Z,2.30
2018-12-27T05:14:57.287Z,2.30
2018-12-27T05:17:25.985Z,2.40
2018-12-27T05:19:54.450Z,2.30
2018-12-27T05:22:23.109Z,2.40
2018-12-27T05:24:51.630Z,2.40
2018-12-27T05:27:19.978Z,2.40
2018-12-27T05:29:48.581Z,2.40
2018-12-27T05:32:17.282Z,2.40
2018-12-27T05:34:45.929Z,2.40
2018-12-27T05:37:14.201Z,2.40
2018-12-27T05:39:42.725Z,2.40
2018-12-27T05:42:11.406Z,2.40
2018-12-27T05:44:40.134Z,2.40
2018-12-27T05:47:08.977Z,2.40
2018-12-27T05:49:38.850Z,2.40
2018-12-27T05:52:07.256Z,2.40
2018-12-27T05:54:35.666Z,2.40
2018-12-27T05:57:04.316Z,2.40
2018-12-27T05:59:33.005Z,2.40
2018-12-27T06:02:01.714Z,2.40
2018-12-27T06:04:33.779Z,2.50
2018-12-27T06:07:00.697Z,2.50
2018-12-27T06:09:29.608Z,2.50
2018-12-27T06:11:58.266Z,2.40
2018-12-27T06:14:27.169Z,2.40
2018-12-27T06:16:55.672Z,2.40
2018-12-27T06:19:24.313Z,2.40
2018-12-27T06:21:52.999Z,2.30
2018-12-27T06:24:21.725Z,2.30
2018-12-27T06:26:50.386Z,2.30
2018-12-27T06:29:19.070Z,2.30
2018-12-27T06:31:47.579Z,2.30
2018-12-27T06:34:16.238Z,2.30
2018-12-27T06:36:44.724Z,2.30
2018-12-27T06:39:13.451Z,2.30
2018-12-27T06:41:42.269Z,2.30
2018-12-27T06:44:10.685Z,2.20
2018-12-27T06:46:39.265Z,2.20
2018-12-27T06:49:07.941Z,2.20
2018-12-27T06:51:36.622Z,2.20
2018-12-27T06:54:05.336Z,2.20
2018-12-27T06:56:33.576Z,2.10
2018-12-27T06:59:02.377Z,2.20
2018-12-27T07:01:30.980Z,2.20
2018-12-27T07:03:59.644Z,2.10
2018-12-27T07:06:28.329Z,2.20
2018-12-27T07:08:56.644Z,2.20
2018-12-27T07:11:25.091Z,2.10
2018-12-27T07:13:53.549Z,2.10
2018-12-27T07:16:22.279Z,2.20
2018-12-27T07:18:50.508Z,2.20
2018-12-27T07:21:19.189Z,2.10
2018-12-27T07:23:48.002Z,2.10
2018-12-27T07:26:16.465Z,2.10
2018-12-27T07:28:45.049Z,2.10
2018-12-27T07:31:13.538Z,2.10
2018-12-27T07:33:42.241Z,2.10
2018-12-27T07:36:15.041Z,2.10
2018-12-27T07:39:00.607Z,2.10
2018-12-27T07:41:39.841Z,2.10
2018-12-27T07:44:38.922Z,2.10
2018-12-27T07:47:13.399Z,2.10
2018-12-27T07:49:43.214Z,2.10
2018-12-27T07:52:12.476Z,2.10
2018-12-27T07:54:43.755Z,2.10
2018-12-27T07:57:13.375Z,2.10
2018-12-27T07:59:41.999Z,2.10
2018-12-27T08:02:10.938Z,2.10
2018-12-27T08:04:39.385Z,2.10
2018-12-27T08:07:08.589Z,2.20
2018-12-27T08:09:37.385Z,2.10
2018-12-27T08:12:08.945Z,2.20
2018-12-27T08:14:44.662Z,2.10
2018-12-27T08:17:13.262Z,2.10
2018-12-27T08:19:41.907Z,2.10
2018-12-27T08:22:10.105Z,2.10
2018-12-27T08:24:47.466Z,2.10
2018-12-27T08:27:16.366Z,2.10
2018-12-27T08:29:45.181Z,2.10
2018-12-27T08:32:13.569Z,2.10
2018-12-27T08:34:44.270Z,2.10
2018-12-27T08:37:13.382Z,2.10
2018-12-27T08:39:41.659Z,2.10
2018-12-27T08:42:10.571Z,2.10
2018-12-27T08:44:39.534Z,2.10
2018-12-27T08:47:08.354Z,2.10
2018-12-27T08:49:37.402Z,2.10
2018-12-27T08:52:06.045Z,2.20
2018-12-27T08:54:34.406Z,2.20
2018-12-27T08:57:05.772Z,2.20
2018-12-27T08:59:34.439Z,2.20
2018-12-27T09:02:04.722Z,2.30
2018-12-27T09:04:33.413Z,2.30
2018-12-27T09:07:04.167Z,2.30
2018-12-27T09:09:38.785Z,2.30
2018-12-27T09:12:08.471Z,2.30
2018-12-27T09:14:37.209Z,2.30
2018-12-27T09:17:06.063Z,2.30
2018-12-27T09:19:34.974Z,2.20
2018-12-27T09:22:03.439Z,2.20
2018-12-27T09:24:32.314Z,2.30
2018-12-27T09:27:01.021Z,2.30
2018-12-27T09:29:29.499Z,2.30
2018-12-27T09:31:58.200Z,2.30
2018-12-27T09:34:27.110Z,2.30
2018-12-27T09:36:56.580Z,2.30
2018-12-27T09:39:25.409Z,2.30
2018-12-27T09:41:54.019Z,2.30
2018-12-27T09:44:22.635Z,2.30
2018-12-27T09:46:56.688Z,2.30
2018-12-27T09:49:25.360Z,2.30
2018-12-27T09:51:54.043Z,2.30
2018-12-27T09:54:22.734Z,2.30
2018-12-27T09:56:58.422Z,2.30
2018-12-27T09:59:49.429Z,2.40
2018-12-27T10:02:20.367Z,2.40
2018-12-27T10:04:48.923Z,2.30
2018-12-27T10:07:18.401Z,2.30
2018-12-27T10:09:47.339Z,2.40
2018-12-27T10:12:16.123Z,2.50
2018-12-27T10:14:44.457Z,2.60
2018-12-27T10:17:13.032Z,2.70
2018-12-27T10:19:41.395Z,2.70
2018-12-27T10:22:25.509Z,2.70
2018-12-27T10:24:54.265Z,2.80
2018-12-27T10:27:22.918Z,2.80
2018-12-27T10:29:58.847Z,2.80
2018-12-27T10:32:28.123Z,2.90
2018-12-27T10:34:56.807Z,2.90
2018-12-27T10:37:25.138Z,3.00
2018-12-27T10:39:54.142Z,3.00
2018-12-27T10:42:23.419Z,3.00
2018-12-27T10:44:52.128Z,3.10
2018-12-27T10:47:20.588Z,3.10
2018-12-27T10:49:49.320Z,3.10
2018-12-27T10:52:17.970Z,3.20
2018-12-27T10:54:46.668Z,3.30
2018-12-27T10:57:16.711Z,3.30
2018-12-27T10:59:45.265Z,3.30
2018-12-27T11:02:13.968Z,3.30
2018-12-27T11:04:42.654Z,3.30
2018-12-27T11:07:11.126Z,3.40
2018-12-27T11:09:39.586Z,3.40
2018-12-27T11:12:08.362Z,3.40
2018-12-27T11:14:37.167Z,3.30
2018-12-27T11:17:06.005Z,3.40
2018-12-27T11:19:34.578Z,3.40
2018-12-27T11:22:03.226Z,3.30
2018-12-27T11:24:31.921Z,3.40
2018-12-27T11:27:00.628Z,3.40
2018-12-27T11:29:29.512Z,3.40
2018-12-27T11:31:57.877Z,3.50
2018-12-27T11:34:26.683Z,3.60
2018-12-27T11:36:55.325Z,3.60
2018-12-27T11:39:24.296Z,3.50
2018-12-27T11:41:52.904Z,3.50
2018-12-27T11:44:21.593Z,3.60
2018-12-27T11:46:50.282Z,3.70
2018-12-27T11:49:22.316Z,3.60
2018-12-27T11:51:51.154Z,3.60
2018-12-27T11:54:19.740Z,3.60
2018-12-27T11:56:48.533Z,3.60
2018-12-27T11:59:17.609Z,3.60
2018-12-27T12:01:46.090Z,3.70
2018-12-27T12:04:14.828Z,3.70
2018-12-27T12:06:43.537Z,3.70
2018-12-27T12:09:12.223Z,3.70
2018-12-27T12:11:40.829Z,3.80
2018-12-27T12:14:09.580Z,3.80
2018-12-27T12:16:37.993Z,3.80
2018-12-27T12:19:06.713Z,3.90
2018-12-27T12:21:35.838Z,3.90
2018-12-27T12:24:05.718Z,3.90
2018-12-27T12:26:34.595Z,3.90
2018-12-27T12:29:03.066Z,4.00
2018-12-27T12:31:31.767Z,3.90
2018-12-27T12:34:00.283Z,3.90
2018-12-27T12:36:28.931Z,4.00
2018-12-27T12:38:57.209Z,4.00
2018-12-27T12:41:25.876Z,3.90
2018-12-27T12:43:54.528Z,4.00
2018-12-27T12:46:23.144Z,4.00
2018-12-27T12:48:51.746Z,4.00
2018-12-27T12:51:20.430Z,4.10
2018-12-27T12:53:49.094Z,4.10
2018-12-27T12:56:17.789Z,4.10
2018-12-27T12:58:47.106Z,4.10
2018-12-27T13:01:15.491Z,4.10
2018-12-27T13:03:44.248Z,4.10
2018-12-27T13:06:18.015Z,4.10
2018-12-27T13:08:42.953Z,4.10
2018-12-27T13:11:11.541Z,4.10
2018-12-27T13:13:40.239Z,4.10
2018-12-27T13:16:08.910Z,4.10
2018-12-27T13:18:37.181Z,4.20
2018-12-27T13:21:05.847Z,4.20
2018-12-27T13:23:34.552Z,4.20
2018-12-27T13:26:03.259Z,4.20
2018-12-27T13:28:31.891Z,4.20
2018-12-27T13:31:01.015Z,4.20
2018-12-27T13:33:29.739Z,4.20
2018-12-27T13:35:57.982Z,4.30
2018-12-27T13:38:26.432Z,4.30
2018-12-27T13:40:55.174Z,4.30
2018-12-27T13:43:23.823Z,4.30
2018-12-27T13:45:52.740Z,4.30
2018-12-27T13:48:21.999Z,4.30
2018-12-27T13:50:50.732Z,4.30
2018-12-27T13:53:20.429Z,4.20
2018-12-27T13:55:49.288Z,4.30
2018-12-27T13:58:17.767Z,4.30
2018-12-27T14:00:46.346Z,4.30
2018-12-27T14:03:16.049Z,4.20
2018-12-27T14:05:45.064Z,4.20
2018-12-27T14:08:14.145Z,4.20
2018-12-27T14:10:50.631Z,4.20
2018-12-27T14:13:28.726Z,4.20
2018-12-27T14:15:57.984Z,4.20
2018-12-27T14:18:26.817Z,4.20
2018-12-27T14:20:55.523Z,4.20
2018-12-27T14:23:24.450Z,4.20
2018-12-27T14:25:53.074Z,4.20
2018-12-27T14:28:22.220Z,4.20
2018-12-27T14:30:50.800Z,4.20
2018-12-27T14:33:20.474Z,4.30
2018-12-27T14:35:50.025Z,4.30
2018-12-27T14:38:18.934Z,4.30
2018-12-27T14:40:47.328Z,4.30
2018-12-27T14:43:15.806Z,4.20
2018-12-27T14:45:46.210Z,4.20
2018-12-27T14:48:14.606Z,4.20
2018-12-27T14:50:43.534Z,4.20
2018-12-27T14:53:13.111Z,4.20
2018-12-27T14:55:41.698Z,4.30
2018-12-27T14:58:10.184Z,4.20
2018-12-27T15:00:39.153Z,4.30
2018-12-27T15:03:08.262Z,4.20
2018-12-27T15:05:36.893Z,4.30
2018-12-27T15:08:12.798Z,4.30
2018-12-27T15:10:42.427Z,4.20
2018-12-27T15:13:11.110Z,4.30
2018-12-27T15:15:40.005Z,4.30
2018-12-27T15:18:08.760Z,4.30
2018-12-27T15:20:37.369Z,4.30
2018-12-27T15:23:06.096Z,4.30
2018-12-27T15:25:34.744Z,4.30
2018-12-27T15:28:04.039Z,4.30
2018-12-27T15:30:33.274Z,4.30
2018-12-27T15:33:01.818Z,4.30
2018-12-27T15:35:30.665Z,4.30
2018-12-27T15:37:59.865Z,4.30
2018-12-27T15:40:29.960Z,4.30
2018-12-27T15:42:58.402Z,4.20
2018-12-27T15:45:27.460Z,4.20
2018-12-27T15:47:57.170Z,4.20
2018-12-27T15:50:25.833Z,4.20
2018-12-27T15:52:54.004Z,4.20
2018-12-27T15:55:22.978Z,4.20
2018-12-27T15:57:51.755Z,4.20
2018-12-27T16:00:21.629Z,4.20
2018-12-27T16:02:52.340Z,4.20
2018-12-27T16:05:20.909Z,4.10
2018-12-27T16:07:51.437Z,4.20
2018-12-27T16:10:20.985Z,4.20
2018-12-27T16:12:49.899Z,4.20
2018-12-27T16:15:19.041Z,4.20
2018-12-27T16:17:47.578Z,4.20
2018-12-27T16:20:16.981Z,4.20
2018-12-27T16:22:45.485Z,4.20
2018-12-27T16:25:14.032Z,4.10
2018-12-27T16:27:42.731Z,4.20
2018-12-27T16:30:11.427Z,4.10
2018-12-27T16:32:40.095Z,4.20
2018-12-27T16:35:08.783Z,4.10
2018-12-27T16:37:37.478Z,4.10
2018-12-27T16:40:07.170Z,4.10
2018-12-27T16:42:35.873Z,4.10
2018-12-27T16:45:04.393Z,4.10
2018-12-27T16:47:32.721Z,4.10
2018-12-27T16:50:01.286Z,4.20
2018-12-27T16:52:34.909Z,4.10
2018-12-27T16:55:04.005Z,4.10
2018-12-27T16:57:32.697Z,4.10
2018-12-27T17:00:01.398Z,4.10
2018-12-27T17:02:30.070Z,4.10
2018-12-27T17:04:58.735Z,4.10
2018-12-27T17:07:27.454Z,4.10
2018-12-27T17:09:56.110Z,4.10
2018-12-27T17:12:24.822Z,4.10
2018-12-27T17:14:53.369Z,4.10
2018-12-27T17:17:21.666Z,4.10
2018-12-27T17:19:50.450Z,4.10
2018-12-27T17:22:19.100Z,4.10
2018-12-27T17:24:47.533Z,4.10
2018-12-27T17:27:16.418Z,4.10
2018-12-27T17:29:45.048Z,4.10
2018-12-27T17:32:14.165Z,4.20
2018-12-27T17:34:42.685Z,4.20
2018-12-27T17:37:11.182Z,4.10
2018-12-27T17:39:39.968Z,4.10
2018-12-27T17:42:08.613Z,4.10
2018-12-27T17:44:37.526Z,4.10
2018-12-27T17:47:06.515Z,4.10
2018-12-27T17:49:35.080Z,4.10
2018-12-27T17:52:03.786Z,4.10
2018-12-27T17:54:32.145Z,4.10
2018-12-27T17:57:00.721Z,4.10
2018-12-27T17:59:29.424Z,4.10
2018-12-27T18:01:58.101Z,4.10
2018-12-27T18:04:26.786Z,4.10
2018-12-27T18:06:55.080Z,4.10
2018-12-27T18:09:23.964Z,4.10
2018-12-27T18:11:52.265Z,4.10
2018-12-27T18:14:20.971Z,4.10
2018-12-27T18:16:50.496Z,4.10
2018-12-27T18:19:19.136Z,4.10
2018-12-27T18:21:51.542Z,4.20
2018-12-27T18:24:25.943Z,4.10
2018-12-27T18:26:55.348Z,4.10
2018-12-27T18:29:23.844Z,4.20
2018-12-27T18:31:54.577Z,4.20
2018-12-27T18:34:23.290Z,4.20
2018-12-27T18:36:52.012Z,4.20
2018-12-27T18:39:21.732Z,4.20
2018-12-27T18:41:50.491Z,4.20
2018-12-27T18:44:19.498Z,4.20
2018-12-27T18:46:48.274Z,4.20
2018-12-27T18:49:20.606Z,4.20
2018-12-27T18:51:47.484Z,4.20
2018-12-27T18:54:16.310Z,4.20
2018-12-27T18:56:45.462Z,4.30
2018-12-27T18:59:14.107Z,4.30
2018-12-27T19:01:42.970Z,4.30
2018-12-27T19:04:11.833Z,4.30
2018-12-27T19:06:40.312Z,4.30
2018-12-27T19:09:08.737Z,4.30
2018-12-27T19:12:13.337Z,4.30
2018-12-27T19:14:42.241Z,4.40
2018-12-27T19:17:39.131Z,4.30
2018-12-27T19:20:24.685Z,4.40
2018-12-27T19:23:14.159Z,4.40
2018-12-27T19:25:56.977Z,4.30
2018-12-27T19:28:32.558Z,4.30
2018-12-27T19:31:14.967Z,4.40
2018-12-27T19:34:03.645Z,4.40
2018-12-27T19:36:40.522Z,4.40
2018-12-27T19:39:23.392Z,4.40
2018-12-27T19:42:01.280Z,4.40
2018-12-27T19:44:46.003Z,4.40
2018-12-27T19:47:29.652Z,4.40
2018-12-27T19:50:18.269Z,4.40
2018-12-27T19:52:54.205Z,4.40
2018-12-27T19:55:23.063Z,4.50
2018-12-27T19:57:52.428Z,4.50
2018-12-27T20:00:21.044Z,4.50
2018-12-27T20:02:49.699Z,4.50
2018-12-27T20:05:20.017Z,4.50
2018-12-27T20:07:48.738Z,4.50
2018-12-27T20:10:17.092Z,4.50
2018-12-27T20:12:45.869Z,4.50
2018-12-27T20:15:14.898Z,4.50
2018-12-27T20:17:43.442Z,4.50
2018-12-27T20:20:12.851Z,4.60
2018-12-27T20:22:50.565Z,4.50
2018-12-27T20:25:19.321Z,4.50
2018-12-27T20:27:48.031Z,4.60
2018-12-27T20:30:16.749Z,4.60
2018-12-27T20:32:45.014Z,4.60
2018-12-27T20:35:13.667Z,4.60
2018-12-27T20:37:42.405Z,4.60
2018-12-27T20:40:10.763Z,4.70
2018-12-27T20:42:39.527Z,4.70
2018-12-27T20:45:09.161Z,4.70
2018-12-27T20:47:37.520Z,4.70
2018-12-27T20:50:06.158Z,4.70
2018-12-27T20:52:35.109Z,4.70
2018-12-27T20:55:03.449Z,4.80
2018-12-27T20:57:31.729Z,4.70
2018-12-27T21:00:00.323Z,4.70
2018-12-27T21:02:28.995Z,4.70
2018-12-27T21:04:57.680Z,4.80
2018-12-27T21:07:29.875Z,4.80
2018-12-27T21:09:58.108Z,4.80
2018-12-27T21:12:26.810Z,4.80
2018-12-27T21:14:55.514Z,4.80
2018-12-27T21:17:24.070Z,4.80
2018-12-27T21:19:52.369Z,4.80
2018-12-27T21:22:20.959Z,4.80
2018-12-27T21:24:49.821Z,4.80
2018-12-27T21:27:18.333Z,4.90
2018-12-27T21:29:46.966Z,4.80
2018-12-27T21:32:15.902Z,4.90
2018-12-27T21:34:44.265Z,4.90
2018-12-27T21:37:12.870Z,4.90
2018-12-27T21:39:42.752Z,4.90
2018-12-27T21:42:11.450Z,4.90
2018-12-27T21:44:39.733Z,4.90
2018-12-27T21:47:08.411Z,5.00
2018-12-27T21:49:37.493Z,5.00
2018-12-27T21:52:06.002Z,5.00
2018-12-27T21:54:34.667Z,5.00
2018-12-27T21:57:04.370Z,5.00
2018-12-27T21:59:33.078Z,5.00
2018-12-27T22:02:01.755Z,5.00
2018-12-27T22:04:30.440Z,5.00
2018-12-27T22:06:58.837Z,5.00
2018-12-27T22:09:27.185Z,5.00
2018-12-27T22:11:55.882Z,5.00
2018-12-27T22:14:24.576Z,5.00
2018-12-27T22:16:53.255Z,5.10
2018-12-27T22:19:21.939Z,5.10
2018-12-27T22:21:50.643Z,5.10
2018-12-27T22:24:19.320Z,5.10
2018-12-27T22:26:47.589Z,5.10
2018-12-27T22:29:16.354Z,5.10
2018-12-27T22:31:44.858Z,5.10
2018-12-27T22:34:13.634Z,5.10
2018-12-27T22:36:42.351Z,5.10
2018-12-27T22:39:10.814Z,5.10
2018-12-27T22:41:40.658Z,5.10
2018-12-27T22:44:09.636Z,5.20
2018-12-27T22:46:39.023Z,5.20
2018-12-27T22:49:07.597Z,5.10
2018-12-27T22:51:36.378Z,5.20
2018-12-27T22:54:05.195Z,5.20
2018-12-27T22:56:33.859Z,5.20
2018-12-27T22:59:02.583Z,5.20
2018-12-27T23:01:31.237Z,5.20
2018-12-27T23:03:59.911Z,5.30
2018-12-27T23:06:28.633Z,5.20
2018-12-27T23:08:57.498Z,5.30
2018-12-27T23:11:31.934Z,5.30
2018-12-27T23:14:00.609Z,5.30
2018-12-27T23:16:29.284Z,5.30
2018-12-27T23:18:57.582Z,5.40
2018-12-27T23:21:26.777Z,5.40
2018-12-27T23:23:55.748Z,5.40
2018-12-27T23:26:24.262Z,5.40
2018-12-27T23:28:52.931Z,5.40
2018-12-27T23:31:21.602Z,5.40
2018-12-27T23:33:50.114Z,5.40
2018-12-27T23:36:19.046Z,5.40
2018-12-27T23:38:50.355Z,5.50
2018-12-27T23:41:18.012Z,5.50
2018-12-27T23:43:46.467Z,5.50
2018-12-27T23:46:15.457Z,5.50
2018-12-27T23:48:43.571Z,5.50
2018-12-27T23:51:12.317Z,5.50
2018-12-27T23:53:40.805Z,5.50
2018-12-27T23:56:09.100Z,5.50
2018-12-27T23:58:37.751Z,5.50
